Detalii statie VALKAPA [00001D0A]

Toti senzorii

Date Temperatura solului [C]Precipitatii [mm]Voltaj baterie [mV]Leaf Wetness [Min]HC Air temperature [C]HC Relative humidity [%]Punctul de roua [C]
medieminmaxsumaultimatimpmedieminmaxmediemediemin
2018-02-23 13:00:00 0 7098 2.17 1.95 2.35 99.28 1.9 1.7
2018-02-23 14:00:00 0 7088 2.48 2.34 2.68 100 2.4 2.3
2018-02-23 15:00:00 0 7080 2.54 2.42 2.7 100 2.5 2.4
2018-02-23 16:00:00 0 7088 2.27 2.09 2.45 100 2.2 2
2018-02-23 17:00:00 0.2 6972 1.61 1.27 1.98 100 1.5 1.2
2018-02-23 18:00:00 0 6914 0.69 0.3 1.27 100 0.6 0.3
2018-02-23 19:00:00 0 6874 0.11 -0.16 0.33 100 0.1 0
2018-02-23 20:00:00 0 6854 -0.59 -0.92 -0.21 100 -0.4 -0.8
2018-02-23 21:00:00 0 6834 -1.35 -1.54 -1.06 100 -1.2 -1.4
2018-02-23 22:00:00 0 6826 -1.98 -2.14 -1.67 99.99 -1.8 -2
2018-02-23 23:00:00 0 6826 -2.08 -2.13 -2.06 93.39 -2.9 -3.6
2018-02-24 00:00:00 0 6806 -2.16 -2.22 -2.1 85.77 -4.1 -4.6
2018-02-24 01:00:00 0 6816 -2.22 -2.3 -2.16 80.89 -5 -5.4
2018-02-24 02:00:00 0 6816 -2.5 -2.68 -2.31 78.07 -5.7 -6.1
2018-02-24 03:00:00 0 6796 -3.05 -3.48 -2.74 76.47 -6.5 -7.1
2018-02-24 04:00:00 0 6816 -4.11 -4.49 -3.47 76.45 -7.5 -7.9
2018-02-24 05:00:00 0 6776 -4.77 -5.05 -4.54 77.1 -8.1 -8.3
2018-02-24 06:00:00 0 6786 -5.2 -5.32 -5.08 76.44 -8.6 -8.9
2018-02-24 07:00:00 0 6776 -5.4 -5.52 -5.31 74.49 -9.1 -9.5
2018-02-24 08:00:00 0 6806 -5.43 -5.58 -5.18 71.45 -9.7 -9.9
2018-02-24 09:00:00 0 6932 -4.54 -5.11 -3.84 66.23 -9.8 -10
2018-02-24 10:00:00 0 7254 -3.21 -3.72 -2.68 59.32 -9.9 -10.5
2018-02-24 11:00:00 0 7274 -1.96 -2.65 -1.62 56.99 -9.3 -10.3
2018-02-24 12:00:00 0 7236 -1.13 -1.43 -0.8 56.2 -8.7 -9.4
2018-02-24 13:00:00 0 7254 -0.7 -1.24 -0.22 53.66 -8.9 -9.9
2018-02-24 14:00:00 0 7264 0.08 -0.24 0.42 50.96 -8.9 -9.9
2018-02-24 15:00:00 0 7264 0.31 -0.06 0.51 46.88 -9.7 -10.5
2018-02-24 16:00:00 0 7264 0.37 0.01 0.79 45 -10.2 -11.1
2018-02-24 17:00:00 0 7216 -0.79 -1.36 0.04 47.72 -10.4 -11
2018-02-24 18:00:00 0 7080 -1.92 -2.41 -1.43 50.57 -10.8 -11.5
2018-02-24 19:00:00 0 6982 -3.01 -3.53 -2.45 52.8 -11.2 -11.8
2018-02-24 20:00:00 0 6942 -3.96 -4.31 -3.6 52.55 -12.2 -12.4
2018-02-24 21:00:00 0 6914 -4.74 -5.06 -4.37 54.22 -12.5 -12.7
2018-02-24 22:00:00 0 6904 -5.41 -5.69 -5.1 54.66 -13 -13.3
2018-02-24 23:00:00 0 6884 -5.94 -6.15 -5.72 53.75 -13.7 -14
2018-02-25 00:00:00 0 6864 -6.34 -6.51 -6.16 52.24 -14.4 -15.2
2018-02-25 01:00:00 0 6864 -6.75 -6.94 -6.48 50.95 -15.1 -15.5
2018-02-25 02:00:00 0 6854 -7.08 -7.29 -6.89 51.18 -15.3 -15.9
2018-02-25 03:00:00 0 6844 -7.94 -8.29 -7.44 59.54 -14.3 -15.1
2018-02-25 04:00:00 0 6834 -8.53 -8.71 -8.38 62.53 -14.3 -14.5
2018-02-25 05:00:00 0 6816 -8.75 -8.86 -8.66 59.29 -15.2 -15.9
2018-02-25 06:00:00 0 6816 -8.92 -9.02 -8.81 56.35 -15.9 -16.1
2018-02-25 07:00:00 0 6806 -9.19 -9.3 -9.06 57.63 -15.9 -16
2018-02-25 08:00:00 0 6826 -9.34 -9.46 -9.17 58.41 -15.9 -16
2018-02-25 09:00:00 0 6922 -8.54 -9.05 -7.94 54.14 -16 -16.4
2018-02-25 10:00:00 0 7206 -7.25 -7.73 -6.72 47.17 -16.5 -17
2018-02-25 11:00:00 0 7246 -6.01 -6.78 -5.6 43.21 -16.4 -17.2
2018-02-25 12:00:00 0 7254 -4.97 -5.53 -4.47 41.92 -15.8 -16.3